createdAt,value
2019-03-26T00:04:05.864Z,70.22
2019-03-26T00:09:10.491Z,70.22
2019-03-26T00:14:19.561Z,69.17
2019-03-26T00:19:27.863Z,70.31
2019-03-26T00:24:36.846Z,69.74
2019-03-26T00:29:49.551Z,70.16
2019-03-26T00:34:57.484Z,70.68
2019-03-26T00:40:05.915Z,70.20
2019-03-26T00:45:14.799Z,69.84
2019-03-26T00:50:23.176Z,70.22
2019-03-26T00:55:31.911Z,71.51
2019-03-26T01:00:47.117Z,72.14
2019-03-26T01:05:56.259Z,72.50
2019-03-26T01:11:05.702Z,72.82
2019-03-26T01:16:14.894Z,73.75
2019-03-26T01:21:25.091Z,73.54
2019-03-26T01:26:38.161Z,73.48
2019-03-26T01:31:49.563Z,73.35
2019-03-26T01:36:57.760Z,74.55
2019-03-26T01:42:06.623Z,74.16
2019-03-26T01:47:16.817Z,73.08
2019-03-26T01:52:26.056Z,73.63
2019-03-26T01:57:34.631Z,72.79
2019-03-26T02:02:47.856Z,72.35
2019-03-26T02:07:55.937Z,71.21
2019-03-26T02:13:07.335Z,71.21
2019-03-26T02:18:15.639Z,72.42
2019-03-26T02:23:23.514Z,72.87
2019-03-26T02:28:36.157Z,71.50
2019-03-26T02:33:43.850Z,72.77
2019-03-26T02:38:51.685Z,72.77
2019-03-26T02:43:59.993Z,71.68
2019-03-26T02:49:10.120Z,71.29
2019-03-26T02:54:18.170Z,71.14
2019-03-26T02:59:26.317Z,70.83
2019-03-26T03:04:34.219Z,70.48
2019-03-26T03:09:42.012Z,70.34
2019-03-26T03:14:50.777Z,70.31
2019-03-26T03:19:58.802Z,71.79
2019-03-26T03:25:07.844Z,72.02
2019-03-26T03:30:18.647Z,70.68
2019-03-26T03:35:26.307Z,70.00
2019-03-26T03:40:36.533Z,70.00
2019-03-26T03:45:47.468Z,69.67
2019-03-26T03:51:00.221Z,69.47
2019-03-26T03:56:09.401Z,69.62
2019-03-26T04:01:17.524Z,69.54
2019-03-26T04:06:25.516Z,69.54
2019-03-26T04:11:33.551Z,69.91
2019-03-26T04:16:42.279Z,69.78
2019-03-26T04:21:52.274Z,69.67
2019-03-26T04:27:00.021Z,69.33
2019-03-26T04:32:09.044Z,68.88
2019-03-26T04:37:17.054Z,69.80
2019-03-26T04:42:24.810Z,69.98
2019-03-26T04:47:32.935Z,70.82
2019-03-26T04:52:41.169Z,69.70
2019-03-26T04:57:49.369Z,70.65
2019-03-26T05:02:59.463Z,69.79
2019-03-26T05:08:10.772Z,69.58
2019-03-26T05:13:18.576Z,69.53
2019-03-26T05:18:26.749Z,69.77
2019-03-26T05:23:36.339Z,69.76
2019-03-26T05:28:44.118Z,69.40
2019-03-26T05:33:53.763Z,69.24
2019-03-26T05:39:01.893Z,69.19
2019-03-26T05:44:09.832Z,68.76
2019-03-26T05:49:18.302Z,68.34
2019-03-26T05:54:26.710Z,68.63
2019-03-26T05:59:35.130Z,68.32
2019-03-26T06:04:44.698Z,68.32
2019-03-26T06:09:55.242Z,68.36
2019-03-26T06:15:05.290Z,68.09
2019-03-26T06:20:15.234Z,67.42
2019-03-26T06:25:23.780Z,67.54
2019-03-26T06:30:31.463Z,67.44
2019-03-26T06:35:40.960Z,67.45
2019-03-26T06:40:51.329Z,66.52
2019-03-26T06:45:59.136Z,66.52
2019-03-26T06:51:09.343Z,66.09
2019-03-26T06:56:17.481Z,66.46
2019-03-26T07:01:25.727Z,65.83
2019-03-26T07:06:35.295Z,64.66
2019-03-26T07:11:43.009Z,63.58
2019-03-26T07:16:51.016Z,63.31
2019-03-26T07:22:00.192Z,63.44
2019-03-26T07:27:09.968Z,62.85
2019-03-26T07:32:17.796Z,63.69
2019-03-26T07:37:26.761Z,64.64
2019-03-26T07:42:36.095Z,64.93
2019-03-26T07:47:45.153Z,65.53
2019-03-26T07:52:54.679Z,65.89
2019-03-26T07:58:05.685Z,65.87
2019-03-26T08:03:16.210Z,66.47
2019-03-26T08:08:24.108Z,65.84
2019-03-26T08:13:32.035Z,66.27
2019-03-26T08:18:42.227Z,65.39
2019-03-26T08:23:51.656Z,65.29
2019-03-26T08:29:01.179Z,64.87
2019-03-26T08:34:22.909Z,64.80
2019-03-26T08:39:34.462Z,64.36
2019-03-26T08:44:42.273Z,64.37
2019-03-26T08:49:53.151Z,65.19
2019-03-26T08:55:04.259Z,64.00
2019-03-26T09:00:16.518Z,65.44
2019-03-26T09:05:26.785Z,66.09
2019-03-26T09:10:35.292Z,67.10
2019-03-26T09:15:43.203Z,67.10
2019-03-26T09:20:51.160Z,64.95
2019-03-26T09:26:00.348Z,62.63
2019-03-26T09:31:09.219Z,62.49
2019-03-26T09:36:18.281Z,61.91
2019-03-26T09:41:26.771Z,60.76
2019-03-26T09:46:36.926Z,60.40
2019-03-26T09:51:44.623Z,60.88
2019-03-26T09:56:56.370Z,60.36
2019-03-26T10:02:07.487Z,61.18
2019-03-26T10:07:21.410Z,59.58
2019-03-26T10:12:26.059Z,59.61
2019-03-26T10:17:34.277Z,59.28
2019-03-26T10:22:42.088Z,59.35
2019-03-26T10:27:52.577Z,58.98
2019-03-26T10:33:01.639Z,58.33
2019-03-26T10:38:16.075Z,57.35
2019-03-26T10:43:28.083Z,55.76
2019-03-26T10:48:36.582Z,54.72
2019-03-26T10:53:44.580Z,54.67
2019-03-26T10:58:55.501Z,53.43
2019-03-26T11:04:03.787Z,54.61
2019-03-26T11:09:22.983Z,52.69
2019-03-26T11:14:22.047Z,53.95
2019-03-26T11:19:29.967Z,53.85
2019-03-26T11:24:37.992Z,52.91
2019-03-26T11:29:46.631Z,51.46
2019-03-26T11:34:56.840Z,50.53
2019-03-26T11:40:05.491Z,48.78
2019-03-26T11:45:17.023Z,50.11
2019-03-26T11:50:25.368Z,49.04
2019-03-26T11:55:33.524Z,47.35
2019-03-26T12:00:49.151Z,48.02
2019-03-26T12:05:58.586Z,47.59
2019-03-26T12:11:10.527Z,47.65
2019-03-26T12:16:22.604Z,47.16
2019-03-26T12:21:31.437Z,45.41
2019-03-26T12:26:39.182Z,46.37
2019-03-26T12:31:47.276Z,45.73
2019-03-26T12:36:55.551Z,44.59
2019-03-26T12:42:05.748Z,45.91
2019-03-26T12:47:14.344Z,47.46
2019-03-26T12:52:22.217Z,46.07
2019-03-26T12:57:32.795Z,47.11
2019-03-26T13:02:43.550Z,46.04
2019-03-26T13:07:53.812Z,45.98
2019-03-26T13:13:04.863Z,45.95
2019-03-26T13:18:12.962Z,46.27
2019-03-26T13:23:20.880Z,46.59
2019-03-26T13:28:32.089Z,46.71
2019-03-26T13:33:40.984Z,47.39
2019-03-26T13:38:52.284Z,46.96
2019-03-26T13:44:01.308Z,46.22
2019-03-26T13:49:13.266Z,45.39
2019-03-26T13:54:21.582Z,46.54
2019-03-26T13:59:32.638Z,47.13
2019-03-26T14:20:22.874Z,48.08
2019-03-26T14:25:32.595Z,47.69
2019-03-26T14:30:51.933Z,47.30
2019-03-26T14:36:01.021Z,47.59
2019-03-26T14:41:10.080Z,47.56
2019-03-26T14:46:18.200Z,48.13
2019-03-26T14:51:27.303Z,48.13
2019-03-26T14:56:41.146Z,48.20
2019-03-26T15:01:56.103Z,47.63
2019-03-26T15:07:03.938Z,47.49
2019-03-26T15:12:12.240Z,47.50
2019-03-26T15:17:20.888Z,48.50
2019-03-26T15:22:29.067Z,48.67
2019-03-26T15:27:37.717Z,48.32
2019-03-26T15:32:48.646Z,48.45
2019-03-26T15:37:56.687Z,48.34
2019-03-26T15:43:07.377Z,49.06
2019-03-26T15:48:15.643Z,48.92
2019-03-26T15:53:26.033Z,48.98
2019-03-26T15:58:34.902Z,49.11
2019-03-26T16:03:42.878Z,49.34
2019-03-26T16:08:53.779Z,50.09
2019-03-26T16:14:04.465Z,50.05
2019-03-26T16:19:19.452Z,50.72
2019-03-26T16:24:28.111Z,50.43
2019-03-26T16:29:38.253Z,51.23
2019-03-26T16:34:47.457Z,51.13
2019-03-26T16:39:56.436Z,51.57
2019-03-26T16:45:07.069Z,51.59
2019-03-26T16:50:19.235Z,51.63
2019-03-26T16:55:27.027Z,51.38
2019-03-26T17:00:41.312Z,51.80
2019-03-26T17:05:49.345Z,53.18
2019-03-26T17:10:57.976Z,54.67
2019-03-26T17:16:06.792Z,54.47
2019-03-26T17:21:18.246Z,55.51
2019-03-26T17:26:26.156Z,58.44
2019-03-26T17:31:38.580Z,63.48
2019-03-26T17:36:48.103Z,66.25
2019-03-26T17:42:16.226Z,67.38
2019-03-26T17:47:14.387Z,67.62
2019-03-26T17:52:23.977Z,68.51
2019-03-26T17:57:36.408Z,67.73
2019-03-26T18:02:45.180Z,67.80
2019-03-26T18:07:56.241Z,68.01
2019-03-26T18:13:06.066Z,68.01
2019-03-26T18:18:17.920Z,67.85
2019-03-26T18:23:28.892Z,67.85
2019-03-26T18:28:38.474Z,68.01
2019-03-26T18:33:54.456Z,69.20
2019-03-26T18:39:07.096Z,68.72
2019-03-26T18:44:21.116Z,68.69
2019-03-26T18:49:41.464Z,68.32
2019-03-26T18:54:54.881Z,68.24
2019-03-26T19:00:05.083Z,69.26
2019-03-26T19:05:18.369Z,69.08
2019-03-26T19:10:40.424Z,69.20
2019-03-26T19:15:52.737Z,69.56
2019-03-26T19:21:09.258Z,69.71
2019-03-26T19:26:20.625Z,69.80
2019-03-26T19:31:30.861Z,69.14
2019-03-26T19:36:43.107Z,69.96
2019-03-26T19:41:55.007Z,69.00
2019-03-26T19:47:26.075Z,69.22
2019-03-26T19:52:36.094Z,68.72
2019-03-26T19:57:50.520Z,69.15
2019-03-26T20:03:02.380Z,68.53
2019-03-26T20:08:16.411Z,69.09
2019-03-26T20:13:32.639Z,69.24
2019-03-26T20:18:46.389Z,68.92
2019-03-26T20:23:55.205Z,69.92
2019-03-26T20:29:04.837Z,70.22
2019-03-26T20:34:15.434Z,69.78
2019-03-26T20:39:23.841Z,69.43
2019-03-26T20:44:36.215Z,68.63
2019-03-26T20:49:52.865Z,68.63
2019-03-26T20:55:13.369Z,69.52
2019-03-26T21:00:40.617Z,69.62
2019-03-26T21:05:49.994Z,69.58
2019-03-26T21:11:04.318Z,69.46
2019-03-26T21:16:13.075Z,69.69
2019-03-26T21:21:22.724Z,69.79
2019-03-26T21:26:31.269Z,70.07
2019-03-26T21:31:43.507Z,69.71
2019-03-26T21:36:51.419Z,68.50
2019-03-26T21:41:59.724Z,69.51
2019-03-26T21:47:12.527Z,69.44
2019-03-26T21:52:20.437Z,69.83
2019-03-26T21:57:33.428Z,69.83
2019-03-26T22:02:41.940Z,69.58
2019-03-26T22:07:52.411Z,70.42
2019-03-26T22:13:00.740Z,69.74
2019-03-26T22:18:10.654Z,68.83
2019-03-26T22:23:18.607Z,68.59
2019-03-26T22:28:26.531Z,68.63
2019-03-26T22:33:34.675Z,68.75
2019-03-26T22:38:42.964Z,68.86
2019-03-26T22:43:51.107Z,69.24
2019-03-26T22:49:03.790Z,68.52
2019-03-26T22:54:14.566Z,68.37
2019-03-26T22:59:22.431Z,68.08
2019-03-26T23:04:30.467Z,68.95
2019-03-26T23:09:39.228Z,68.95
2019-03-26T23:14:48.049Z,68.02
2019-03-26T23:19:57.555Z,67.97
2019-03-26T23:25:05.990Z,67.59
2019-03-26T23:30:18.191Z,66.69
2019-03-26T23:35:29.204Z,66.24
2019-03-26T23:40:38.844Z,66.53
2019-03-26T23:51:07.437Z,63.57
2019-03-26T23:56:15.490Z,64.25
